Time;durP1;ratioP1;P1;durP2;ratioP2;P2;SDS_P1;SDS_P2;PMS_P1;PMS_P2;Temp;Humidity;BMP_temperature;BMP_pressure;BME280_temperature;BME280_humidity;BME280_pressure;Samples;Min_cycle;Max_cycle;Signal;HPM_P1;HPM_P2
2022/08/09 00:00:47;;;;;;;2.15;1.10;;;13.10;99.90;;;;;;5054986;28;20062;-78
2022/08/09 00:03:12;;;;;;;3.08;2.50;;;13.00;99.90;;;;;;5073044;28;20044;-87
2022/08/09 00:05:38;;;;;;;3.67;1.52;;;13.00;99.90;;;;;;5073364;28;20049;-85
2022/08/09 00:08:06;;;;;;;3.45;2.47;;;12.90;99.90;;;;;;5072811;28;20037;-83
2022/08/09 00:10:31;;;;;;;5.40;3.90;;;12.90;99.90;;;;;;5072843;28;20118;-84
2022/08/09 00:12:57;;;;;;;4.72;3.45;;;12.80;99.90;;;;;;5054316;28;20131;-82
2022/08/09 00:15:23;;;;;;;4.63;3.47;;;12.70;99.90;;;;;;5072472;28;20102;-83
2022/08/09 00:17:48;;;;;;;9.25;4.70;;;12.80;99.90;;;;;;5036845;28;20091;-83
2022/08/09 00:20:14;;;;;;;6.10;4.47;;;12.70;99.90;;;;;;5054598;28;20083;-83
2022/08/09 00:22:40;;;;;;;7.90;4.78;;;12.70;99.90;;;;;;5072688;28;20071;-82
2022/08/09 00:25:06;;;;;;;9.73;6.00;;;12.90;99.90;;;;;;5054774;28;20476;-84
2022/08/09 00:27:31;;;;;;;6.07;4.63;;;12.60;99.90;;;;;;5072638;28;20072;-85
2022/08/09 00:29:57;;;;;;;6.63;4.55;;;12.60;99.90;;;;;;5072987;28;20523;-86
2022/08/09 00:32:23;;;;;;;4.70;3.50;;;12.60;99.90;;;;;;5056042;28;20617;-86
2022/08/09 00:34:49;;;;;;;3.70;2.80;;;12.70;99.90;;;;;;5074881;28;20064;-84
2022/08/09 00:37:14;;;;;;;4.68;3.15;;;12.80;99.90;;;;;;5078069;28;20491;-82
2022/08/09 00:39:40;;;;;;;4.20;3.20;;;12.70;99.90;;;;;;5060864;28;20052;-83
2022/08/09 00:42:06;;;;;;;5.07;3.55;;;12.50;99.90;;;;;;5073020;28;20539;-84
2022/08/09 00:44:31;;;;;;;6.50;4.22;;;12.40;99.90;;;;;;5054416;28;20190;-84
2022/08/09 00:46:57;;;;;;;4.57;3.40;;;12.40;99.90;;;;;;5072194;28;20090;-83
2022/08/09 00:49:23;;;;;;;3.20;2.20;;;12.60;99.90;;;;;;5070613;28;20044;-83
2022/08/09 00:51:49;;;;;;;2.65;1.60;;;12.40;99.90;;;;;;5054378;28;20048;-84
2022/08/09 00:54:15;;;;;;;2.33;1.60;;;12.30;99.90;;;;;;5072087;28;20052;-83
2022/08/09 00:56:40;;;;;;;3.00;2.00;;;12.40;99.90;;;;;;5053890;28;20041;-83
2022/08/09 00:59:06;;;;;;;3.10;2.10;;;12.30;99.90;;;;;;5054044;28;20132;-81
2022/08/09 01:01:39;;;;;;;2.45;1.90;;;12.30;99.90;;;;;;5072163;28;20141;-82
2022/08/09 01:04:08;;;;;;;3.90;1.98;;;12.20;99.90;;;;;;5053451;28;20132;-80
2022/08/09 01:06:53;;;;;;;2.95;2.08;;;12.20;99.90;;;;;;5071416;28;20084;-82
2022/08/09 01:09:56;;;;;;;3.10;1.77;;;12.20;99.90;;;;;;5071704;28;20116;-79
2022/08/09 01:12:31;;;;;;;2.08;1.20;;;12.20;99.90;;;;;;5071502;28;20196;-81
2022/08/09 01:15:24;;;;;;;1.90;1.10;;;12.20;99.90;;;;;;5053355;28;20049;-81
2022/08/09 01:18:06;;;;;;;4.15;1.40;;;12.10;99.90;;;;;;5067457;28;20063;-81
2022/08/09 01:20:59;;;;;;;5.03;3.25;;;12.10;99.90;;;;;;5070930;28;20052;-80
2022/08/09 01:23:28;;;;;;;4.07;3.30;;;12.10;99.90;;;;;;5071460;28;20053;-81
2022/08/09 01:26:15;;;;;;;2.95;2.10;;;12.00;99.90;;;;;;5071154;28;20045;-80
2022/08/09 01:28:44;;;;;;;2.22;1.40;;;12.00;99.90;;;;;;5053440;28;20098;-82
2022/08/09 01:31:16;;;;;;;1.52;1.10;;;12.00;99.90;;;;;;5071181;28;20044;-80
2022/08/09 01:33:44;;;;;;;1.70;1.27;;;11.90;99.90;;;;;;5052472;28;20063;-81
2022/08/09 01:36:13;;;;;;;2.03;1.02;;;11.90;99.90;;;;;;5070836;28;20056;-79
2022/08/09 01:38:44;;;;;;;1.90;1.45;;;12.00;99.90;;;;;;5053393;28;20055;-81
2022/08/09 01:41:16;;;;;;;2.85;1.90;;;11.80;99.90;;;;;;5052976;28;20056;-79
2022/08/09 01:43:45;;;;;;;6.82;5.05;;;12.00;99.90;;;;;;5071137;28;20049;-79
2022/08/09 01:46:13;;;;;;;5.10;3.90;;;11.80;99.90;;;;;;5052901;28;20052;-82
2022/08/09 01:48:40;;;;;;;6.68;4.10;;;11.70;99.90;;;;;;5071285;28;20040;-83
2022/08/09 01:51:08;;;;;;;6.65;3.30;;;11.70;99.90;;;;;;5070848;28;20072;-81
2022/08/09 01:53:35;;;;;;;6.35;4.38;;;11.70;99.90;;;;;;5070729;28;20055;-83
2022/08/09 01:56:02;;;;;;;4.90;4.00;;;11.70;99.90;;;;;;5070758;28;20052;-82
2022/08/09 01:58:30;;;;;;;7.78;4.25;;;11.60;99.90;;;;;;5052965;28;20056;-77
2022/08/09 02:00:57;;;;;;;5.38;4.00;;;11.60;99.90;;;;;;5070304;28;20048;-80
2022/08/09 02:03:24;;;;;;;8.07;5.20;;;11.70;99.90;;;;;;5052413;28;20056;-80
2022/08/09 02:05:52;;;;;;;8.55;5.68;;;11.60;99.90;;;;;;5052366;28;20044;-81
2022/08/09 02:08:21;;;;;;;8.23;6.57;;;11.80;99.90;;;;;;5070656;28;20048;-82
2022/08/09 02:10:49;;;;;;;7.40;5.85;;;11.80;99.90;;;;;;5052574;28;20059;-82
2022/08/09 02:13:16;;;;;;;7.00;5.40;;;11.50;99.90;;;;;;5070180;28;20102;-82
2022/08/09 02:15:46;;;;;;;7.88;4.70;;;11.50;99.90;;;;;;5068768;28;20131;-80
2022/08/09 02:18:14;;;;;;;6.13;4.68;;;11.50;99.90;;;;;;5050548;28;20048;-83
2022/08/09 02:20:45;;;;;;;6.95;6.00;;;11.50;99.90;;;;;;5038088;28;20041;-80
2022/08/09 02:23:19;;;;;;;8.73;6.75;;;11.50;99.90;;;;;;5073301;28;20044;-77
2022/08/09 02:25:49;;;;;;;10.38;6.85;;;11.40;99.90;;;;;;5076483;28;20067;-85
2022/08/09 02:28:24;;;;;;;8.73;6.10;;;11.40;99.90;;;;;;5074895;28;20048;-83
2022/08/09 02:31:05;;;;;;;10.90;6.75;;;11.40;99.90;;;;;;5069679;28;20046;-78
2022/08/09 02:33:36;;;;;;;7.25;5.65;;;11.30;99.90;;;;;;5052095;28;20044;-82
2022/08/09 02:36:05;;;;;;;9.18;6.13;;;11.30;99.90;;;;;;5070171;28;20385;-83
2022/08/09 02:38:41;;;;;;;7.15;3.83;;;11.30;99.90;;;;;;5051568;28;20044;-83
2022/08/09 02:41:16;;;;;;;4.30;2.80;;;11.30;99.90;;;;;;5052239;28;20075;-83
2022/08/09 02:43:43;;;;;;;;;;;11.20;99.90;;;;;;5051965;28;20053;-83
2022/08/09 02:46:12;;;;;;;3.40;1.63;;;11.20;99.90;;;;;;5051734;28;20574;-83
2022/08/09 02:48:39;;;;;;;4.60;1.60;;;11.20;99.90;;;;;;5051635;28;20487;-83
2022/08/09 02:51:09;;;;;;;2.22;1.30;;;11.20;99.90;;;;;;5069750;28;20474;-79
2022/08/09 02:53:50;;;;;;;3.22;1.80;;;11.20;99.90;;;;;;5051433;28;20048;-81
2022/08/09 02:56:17;;;;;;;2.30;1.63;;;11.10;99.90;;;;;;5051891;28;20379;-82
2022/08/09 02:58:44;;;;;;;1.25;0.98;;;11.20;99.90;;;;;;5052102;28;20044;-83
2022/08/09 03:01:10;;;;;;;1.42;0.93;;;11.00;99.90;;;;;;5051612;28;20049;-81
2022/08/09 03:03:38;;;;;;;1.75;0.60;;;11.00;99.90;;;;;;5051974;28;20400;-82
2022/08/09 03:06:06;;;;;;;2.50;0.50;;;11.00;99.90;;;;;;5035158;28;20044;-83
2022/08/09 03:08:32;;;;;;;0.77;0.50;;;10.90;99.90;;;;;;5069526;28;20552;-82
2022/08/09 03:11:00;;;;;;;1.33;0.90;;;11.00;99.90;;;;;;5069393;28;20509;-82
2022/08/09 03:13:26;;;;;;;2.05;1.10;;;10.90;99.90;;;;;;5069279;28;20044;-81
2022/08/09 03:15:54;;;;;;;5.63;1.00;;;10.80;99.90;;;;;;5068679;28;20189;-81
2022/08/09 03:18:20;;;;;;;1.60;1.13;;;10.80;99.90;;;;;;5070060;28;20040;-82
2022/08/09 03:20:47;;;;;;;1.42;0.93;;;11.00;99.90;;;;;;5069440;28;20044;-81
2022/08/09 03:23:13;;;;;;;2.58;0.80;;;10.80;99.90;;;;;;5069904;28;20049;-82
2022/08/09 03:25:41;;;;;;;1.63;1.17;;;11.10;99.90;;;;;;5069186;28;20044;-80
2022/08/09 03:28:07;;;;;;;2.95;1.35;;;10.70;99.90;;;;;;5069642;28;20102;-81
2022/08/09 03:30:33;;;;;;;2.20;1.17;;;10.70;99.90;;;;;;5051568;28;20048;-80
2022/08/09 03:33:02;;;;;;;3.70;1.65;;;11.00;99.90;;;;;;5069203;28;20040;-80
2022/08/09 03:35:27;;;;;;;2.30;1.42;;;10.70;99.90;;;;;;5051486;28;20429;-80
2022/08/09 03:37:53;;;;;;;3.75;1.90;;;10.60;99.90;;;;;;5069655;28;20097;-80
2022/08/09 03:40:19;;;;;;;3.30;2.22;;;10.60;99.90;;;;;;5068861;28;20040;-81
2022/08/09 03:42:45;;;;;;;6.45;2.92;;;10.60;99.90;;;;;;5069503;28;20049;-81
2022/08/09 03:45:11;;;;;;;5.13;2.20;;;10.60;99.90;;;;;;5068839;28;20127;-82
2022/08/09 03:47:37;;;;;;;4.00;2.17;;;10.60;99.90;;;;;;5068815;28;20127;-82
2022/08/09 03:50:05;;;;;;;3.15;2.10;;;10.60;99.90;;;;;;5069009;28;20518;-81
2022/08/09 03:52:31;;;;;;;5.00;2.35;;;10.60;99.90;;;;;;5069093;28;20052;-83
2022/08/09 03:55:03;;;;;;;4.38;2.55;;;10.80;99.90;;;;;;5069186;28;20562;-82
2022/08/09 03:57:29;;;;;;;8.23;3.13;;;10.50;99.90;;;;;;5051075;28;20116;-81
2022/08/09 03:59:55;;;;;;;3.83;2.85;;;10.40;99.90;;;;;;5068867;28;20044;-81
2022/08/09 04:02:23;;;;;;;3.83;2.70;;;10.50;99.90;;;;;;5069062;28;20132;-76
2022/08/09 04:04:48;;;;;;;3.45;2.58;;;10.40;99.90;;;;;;5069164;28;20076;-81
2022/08/09 04:07:15;;;;;;;4.00;2.45;;;10.40;99.90;;;;;;5068918;28;20090;-81
2022/08/09 04:09:40;;;;;;;7.85;2.55;;;10.40;99.90;;;;;;5068902;28;20059;-81
2022/08/09 04:12:09;;;;;;;12.18;3.53;;;10.90;99.90;;;;;;5068780;28;20044;-81
2022/08/09 04:14:36;;;;;;;3.63;2.63;;;10.40;99.90;;;;;;5050367;28;20114;-82
2022/08/09 04:17:02;;;;;;;5.22;3.08;;;10.40;99.90;;;;;;5050199;28;20620;-82
2022/08/09 04:19:28;;;;;;;4.13;2.55;;;10.40;99.90;;;;;;5068879;28;20048;-81
2022/08/09 04:21:53;;;;;;;3.95;2.70;;;10.50;99.90;;;;;;5069129;28;20116;-82
2022/08/09 04:24:19;;;;;;;5.65;3.15;;;10.40;99.90;;;;;;5069678;28;20054;-83
2022/08/09 04:26:45;;;;;;;4.88;3.50;;;10.50;99.90;;;;;;5071862;28;20040;-83
2022/08/09 04:29:11;;;;;;;6.43;3.47;;;10.40;99.90;;;;;;5037714;28;20045;-81
2022/08/09 04:31:37;;;;;;;6.47;3.35;;;10.40;99.90;;;;;;5054390;28;20131;-82
2022/08/09 04:34:02;;;;;;;5.00;3.33;;;10.40;99.90;;;;;;5072463;28;20115;-81
2022/08/09 04:36:30;;;;;;;4.78;3.55;;;10.40;99.90;;;;;;5072166;28;20779;-83
2022/08/09 04:39:01;;;;;;;4.43;3.28;;;10.50;99.90;;;;;;5072036;28;20041;-81
2022/08/09 04:41:27;;;;;;;4.70;2.97;;;10.40;99.90;;;;;;5072195;28;20087;-78
2022/08/09 04:43:53;;;;;;;6.35;3.00;;;10.40;99.90;;;;;;5071601;28;20094;-82
2022/08/09 04:46:20;;;;;;;4.10;2.60;;;10.50;99.90;;;;;;5072201;28;20799;-80
2022/08/09 04:48:45;;;;;;;2.63;2.00;;;10.80;99.90;;;;;;5071988;28;20048;-82
2022/08/09 04:51:11;;;;;;;4.75;2.58;;;10.50;99.90;;;;;;5072184;28;20102;-82
2022/08/09 04:53:38;;;;;;;7.65;3.45;;;10.50;99.90;;;;;;5072259;28;20471;-82
2022/08/09 04:56:05;;;;;;;4.95;3.20;;;10.50;99.90;;;;;;5072316;28;20048;-82
2022/08/09 04:58:31;;;;;;;4.72;3.15;;;10.50;99.90;;;;;;5071863;28;20059;-82
2022/08/09 05:00:57;;;;;;;4.53;3.25;;;10.90;99.90;;;;;;5071804;28;20082;-82
2022/08/09 05:03:23;;;;;;;4.78;3.17;;;10.60;99.90;;;;;;5071813;28;20449;-82
2022/08/09 05:05:48;;;;;;;6.53;2.85;;;10.60;99.90;;;;;;5054091;28;20049;-82
2022/08/09 05:08:14;;;;;;;5.85;3.38;;;10.70;99.90;;;;;;5072114;28;20098;-76
2022/08/09 05:10:41;;;;;;;5.10;2.90;;;10.70;99.90;;;;;;5072106;28;20689;-82
2022/08/09 05:13:06;;;;;;;4.13;2.78;;;10.70;99.90;;;;;;5072011;28;20080;-82
2022/08/09 05:15:32;;;;;;;7.45;3.15;;;10.80;99.90;;;;;;5070793;28;20052;-81
2022/08/09 05:17:58;;;;;;;5.90;3.15;;;10.90;99.90;;;;;;5071200;28;20450;-83
2022/08/09 05:20:26;;;;;;;4.88;3.28;;;11.00;99.90;;;;;;5054045;28;20059;-82
2022/08/09 05:22:52;;;;;;;4.95;3.28;;;11.10;99.90;;;;;;5072018;28;20047;-79
2022/08/09 05:25:19;;;;;;;3.95;2.83;;;11.20;99.90;;;;;;5071736;28;20395;-82
2022/08/09 05:27:45;;;;;;;7.65;3.00;;;11.20;99.90;;;;;;5071502;28;20037;-82
2022/08/09 05:30:11;;;;;;;5.75;3.03;;;11.30;99.90;;;;;;5071148;28;20045;-82
2022/08/09 05:32:37;;;;;;;7.10;3.20;;;11.40;99.90;;;;;;5070905;28;20565;-82
2022/08/09 05:35:04;;;;;;;4.13;3.00;;;11.50;99.90;;;;;;5070466;28;20120;-81
2022/08/09 05:37:30;;;;;;;6.18;3.45;;;11.50;99.90;;;;;;5071556;28;20051;-78
2022/08/09 05:39:57;;;;;;;5.97;2.92;;;11.70;99.90;;;;;;5070909;28;20044;-83
2022/08/09 05:42:23;;;;;;;6.90;2.85;;;11.80;99.90;;;;;;5071143;28;20507;-83
2022/08/09 05:44:50;;;;;;;4.28;2.70;;;12.30;99.90;;;;;;5070843;28;20399;-85
2022/08/09 05:47:17;;;;;;;3.88;2.63;;;12.20;99.90;;;;;;5052860;28;20495;-87
2022/08/09 05:49:42;;;;;;;4.80;2.90;;;12.10;99.90;;;;;;5072372;28;20055;-83
2022/08/09 05:52:08;;;;;;;6.70;3.45;;;12.20;99.90;;;;;;5071612;28;20120;-86
2022/08/09 05:54:34;;;;;;;6.53;3.20;;;12.40;99.90;;;;;;5070903;28;20548;-85
2022/08/09 05:57:00;;;;;;;6.03;3.30;;;12.50;99.90;;;;;;5071115;28;20056;-83
2022/08/09 05:59:25;;;;;;;4.88;3.63;;;12.90;99.90;;;;;;5070628;28;20102;-83
2022/08/09 06:01:51;;;;;;;7.10;4.07;;;12.90;99.90;;;;;;5070723;28;20067;-81
2022/08/09 06:04:17;;;;;;;8.85;3.90;;;12.90;99.90;;;;;;5071104;28;20049;-81
2022/08/09 06:06:42;;;;;;;5.28;3.53;;;13.30;99.90;;;;;;5070962;28;20060;-82
2022/08/09 06:09:08;;;;;;;12.05;4.00;;;13.40;99.90;;;;;;5070761;28;20087;-81
2022/08/09 06:11:33;;;;;;;10.43;3.88;;;13.50;99.90;;;;;;5071188;28;20040;-81
2022/08/09 06:13:59;;;;;;;6.05;4.10;;;13.50;99.90;;;;;;5052877;28;20040;-82
2022/08/09 06:16:25;;;;;;;9.38;4.70;;;13.60;99.90;;;;;;5069713;28;20502;-82
2022/08/09 06:18:50;;;;;;;7.20;4.50;;;13.80;99.90;;;;;;5070636;28;20060;-82
2022/08/09 06:21:16;;;;;;;8.77;5.03;;;14.00;99.90;;;;;;5070601;28;20403;-83
2022/08/09 06:23:41;;;;;;;9.20;4.78;;;14.10;99.90;;;;;;5052839;28;20094;-83
2022/08/09 06:26:07;;;;;;;5.85;4.15;;;14.40;99.90;;;;;;5070432;28;20052;-84
2022/08/09 06:28:33;;;;;;;7.18;4.35;;;14.40;99.90;;;;;;5052841;28;20052;-84
2022/08/09 06:30:58;;;;;;;6.28;4.53;;;14.60;99.90;;;;;;5070771;28;20110;-84
2022/08/09 06:33:24;;;;;;;6.72;4.38;;;14.70;99.90;;;;;;5069918;28;20040;-83
2022/08/09 06:35:49;;;;;;;11.73;4.68;;;14.90;99.90;;;;;;5070478;28;20403;-85
2022/08/09 06:38:15;;;;;;;8.52;4.55;;;15.00;99.90;;;;;;5070093;28;20041;-84
2022/08/09 06:40:41;;;;;;;9.38;4.15;;;15.20;99.90;;;;;;5070300;28;20052;-85
2022/08/09 06:43:07;;;;;;;7.40;4.32;;;15.40;99.90;;;;;;5070479;28;20044;-81
2022/08/09 06:45:32;;;;;;;11.32;4.10;;;15.50;99.90;;;;;;5070685;28;20511;-85
2022/08/09 06:47:58;;;;;;;8.55;3.50;;;15.60;99.90;;;;;;5051153;28;20050;-79
2022/08/09 06:50:23;;;;;;;9.27;2.78;;;15.80;99.90;;;;;;5070264;28;20056;-79
2022/08/09 06:52:49;;;;;;;5.88;3.50;;;15.90;99.90;;;;;;5070259;28;20052;-81
2022/08/09 06:55:18;;;;;;;7.82;3.33;;;16.10;99.90;;;;;;5070168;28;20049;-80
2022/08/09 06:57:44;;;;;;;7.38;3.55;;;16.30;99.90;;;;;;5070250;28;20623;-83
2022/08/09 07:00:13;;;;;;;7.82;3.17;;;16.40;99.90;;;;;;5070323;28;20135;-80
2022/08/09 07:02:39;;;;;;;5.78;3.00;;;16.60;99.90;;;;;;5051741;28;20048;-77
2022/08/09 07:05:05;;;;;;;6.53;3.20;;;16.70;99.90;;;;;;5069470;28;20044;-85
2022/08/09 07:07:31;;;;;;;8.88;3.95;;;16.90;99.90;;;;;;5070102;28;20124;-84
2022/08/09 07:09:57;;;;;;;8.23;3.33;;;17.10;99.90;;;;;;5069896;28;20143;-82
2022/08/09 07:12:23;;;;;;;7.50;4.72;;;17.20;99.90;;;;;;5070385;28;20044;-81
2022/08/09 07:14:50;;;;;;;7.38;3.75;;;17.30;99.90;;;;;;5069868;28;20056;-80
2022/08/09 07:17:15;;;;;;;6.93;2.75;;;17.40;99.90;;;;;;5070071;28;20052;-76
2022/08/09 07:19:42;;;;;;;5.18;2.78;;;17.50;99.90;;;;;;5057974;28;20052;-76
2022/08/09 07:22:07;;;;;;;6.53;3.33;;;18.00;99.90;;;;;;5070865;28;20048;-77
2022/08/09 07:24:35;;;;;;;6.93;3.30;;;17.90;99.90;;;;;;5070126;28;20045;-76
2022/08/09 07:27:01;;;;;;;8.15;3.17;;;18.00;99.90;;;;;;5069476;28;20048;-75
2022/08/09 07:29:27;;;;;;;12.30;3.20;;;18.20;99.90;;;;;;5070180;28;20048;-77
2022/08/09 07:31:54;;;;;;;5.93;2.95;;;18.30;99.90;;;;;;5069995;28;20056;-78
2022/08/09 07:34:20;;;;;;;9.23;3.13;;;18.40;99.90;;;;;;5062977;28;20051;-77
2022/08/09 07:36:46;;;;;;;8.15;2.85;;;18.60;99.90;;;;;;5047733;28;20621;-77
2022/08/09 07:39:12;;;;;;;6.10;2.30;;;18.70;99.90;;;;;;5064014;28;20045;-76
2022/08/09 07:41:38;;;;;;;7.13;2.00;;;18.80;99.90;;;;;;5067955;28;20039;-75
2022/08/09 07:44:03;;;;;;;6.00;2.50;;;19.00;99.90;;;;;;5068341;28;20036;-79
2022/08/09 07:46:29;;;;;;;9.52;2.83;;;19.10;99.90;;;;;;5080974;28;20118;-82
2022/08/09 07:48:55;;;;;;;4.45;2.03;;;19.10;99.90;;;;;;5073998;28;20045;-76
2022/08/09 07:51:22;;;;;;;6.72;1.40;;;19.30;99.90;;;;;;5069033;28;20130;-77
2022/08/09 07:53:51;;;;;;;3.25;0.93;;;19.40;99.90;;;;;;5070469;28;20497;-77
2022/08/09 07:56:17;;;;;;;5.60;0.90;;;19.40;99.90;;;;;;5051423;28;20045;-77
2022/08/09 07:58:42;;;;;;;3.95;0.98;;;19.70;99.90;;;;;;5074751;28;20571;-79
2022/08/09 08:01:08;;;;;;;3.75;1.02;;;20.00;99.90;;;;;;5072822;28;20060;-78
2022/08/09 08:03:39;;;;;;;4.80;1.05;;;20.30;99.90;;;;;;5079105;28;20029;-82
2022/08/09 08:06:12;;;;;;;;;;;20.50;99.90;;;;;;5035230;28;20063;-80
2022/08/09 08:08:55;;;;;;;3.00;0.90;;;20.70;99.90;;;;;;5073122;28;20002;-79
2022/08/09 08:11:26;;;;;;;2.47;0.90;;;21.00;99.90;;;;;;5073803;28;20040;-86
2022/08/09 08:13:52;;;;;;;1.75;0.63;;;21.10;99.90;;;;;;5072954;28;20118;-79
2022/08/09 08:16:24;;;;;;;4.25;0.73;;;21.30;99.90;;;;;;5072749;28;20060;-82
2022/08/09 08:19:06;;;;;;;3.10;0.75;;;21.50;99.90;;;;;;5073409;28;20371;-85
2022/08/09 08:21:44;;;;;;;6.03;0.90;;;21.90;99.90;;;;;;5073030;28;20657;-83
2022/08/09 08:24:25;;;;;;;2.55;0.80;;;22.20;99.90;;;;;;5055724;28;20120;-86
2022/08/09 08:26:50;;;;;;;2.63;0.90;;;22.50;99.90;;;;;;5055154;28;20119;-83
2022/08/09 08:29:25;;;;;;;4.13;0.70;;;22.60;99.90;;;;;;5072940;28;20566;-81
2022/08/09 08:31:54;;;;;;;3.03;0.90;;;22.50;99.90;;;;;;5054570;28;20154;-84
2022/08/09 08:34:26;;;;;;;1.77;0.70;;;22.40;99.90;;;;;;5072905;28;20048;-79
2022/08/09 08:37:01;;;;;;;4.78;0.90;;;22.40;99.90;;;;;;5054069;28;20045;-84
2022/08/09 08:39:27;;;;;;;3.55;0.80;;;22.50;99.90;;;;;;5072708;28;20043;-82
2022/08/09 08:41:53;;;;;;;3.03;0.77;;;22.50;99.90;;;;;;5071098;28;20056;-83
2022/08/09 08:44:45;;;;;;;3.83;0.70;;;22.50;99.90;;;;;;5071898;28;20561;-82
2022/08/09 08:47:13;;;;;;;2.75;0.73;;;22.80;99.90;;;;;;4990661;28;20058;-80
2022/08/09 08:49:39;;;;;;;5.47;0.95;;;23.00;99.90;;;;;;5006735;28;20158;-75
2022/08/09 08:52:07;;;;;;;3.45;0.73;;;23.40;99.90;;;;;;4995253;28;20085;-82
2022/08/09 08:54:33;;;;;;;2.70;0.60;;;23.50;99.90;;;;;;5015736;28;20105;-80
2022/08/09 08:57:00;;;;;;;3.75;0.70;;;23.80;99.90;;;;;;5027953;28;20089;-80
2022/08/09 08:59:26;;;;;;;2.20;0.65;;;23.70;99.90;;;;;;5026383;28;20058;-82
2022/08/09 09:01:52;;;;;;;2.08;0.70;;;23.30;99.90;;;;;;5011811;28;20054;-79
2022/08/09 09:04:19;;;;;;;9.32;0.70;;;23.10;99.90;;;;;;5011570;28;20508;-81
2022/08/09 09:06:47;;;;;;;1.52;0.70;;;23.00;99.90;;;;;;5011014;28;20457;-80
2022/08/09 09:09:15;;;;;;;1.02;0.40;;;23.00;99.90;;;;;;5009802;28;20100;-80
2022/08/09 09:11:41;;;;;;;3.33;0.68;;;22.80;99.90;;;;;;4993337;28;20471;-82
2022/08/09 09:14:16;;;;;;;3.15;0.60;;;22.90;99.90;;;;;;5010071;28;20038;-83
2022/08/09 09:16:42;;;;;;;4.45;0.55;;;22.80;99.90;;;;;;4997119;28;20064;-81
2022/08/09 09:19:10;;;;;;;3.25;0.98;;;22.80;99.90;;;;;;5072124;28;20044;-79
2022/08/09 09:21:36;;;;;;;2.80;0.40;;;22.80;99.90;;;;;;5054345;28;20609;-80
2022/08/09 09:24:05;;;;;;;3.22;0.52;;;22.80;99.90;;;;;;5071574;28;20443;-80
2022/08/09 09:26:31;;;;;;;1.38;0.70;;;22.70;99.90;;;;;;5072011;28;20522;-79
2022/08/09 09:28:56;;;;;;;3.10;0.60;;;22.70;99.90;;;;;;5071829;28;20037;-80
2022/08/09 09:31:23;;;;;;;1.38;0.50;;;22.70;99.90;;;;;;5072183;28;20415;-79
2022/08/09 09:33:49;;;;;;;2.13;0.65;;;22.60;99.90;;;;;;5071860;28;20098;-79
2022/08/09 09:36:15;;;;;;;1.50;0.45;;;22.70;99.90;;;;;;5071905;28;20045;-80
2022/08/09 09:38:46;;;;;;;2.83;0.68;;;22.70;99.90;;;;;;5053611;28;20053;-77
2022/08/09 09:41:27;;;;;;;3.03;0.70;;;23.00;99.90;;;;;;5071361;28;20517;-77
2022/08/09 09:43:58;;;;;;;1.42;0.50;;;23.40;99.90;;;;;;5052933;28;20051;-75
2022/08/09 09:46:29;;;;;;;2.20;0.50;;;23.50;99.90;;;;;;5053533;28;20099;-78
2022/08/09 09:48:56;;;;;;;2.13;0.70;;;23.70;99.90;;;;;;5071378;28;20041;-80
2022/08/09 09:51:22;;;;;;;4.78;0.85;;;24.20;99.90;;;;;;5053244;28;20060;-80
2022/08/09 09:54:08;;;;;;;1.65;0.45;;;24.40;99.90;;;;;;5070686;28;20044;-79
2022/08/09 09:56:36;;;;;;;4.35;0.60;;;24.70;99.90;;;;;;5071075;28;20040;-78
2022/08/09 09:59:03;;;;;;;2.00;0.50;;;24.70;99.90;;;;;;5052996;28;20044;-79
2022/08/09 10:01:29;;;;;;;4.32;0.43;;;24.50;99.90;;;;;;5052454;28;20215;-78
2022/08/09 10:03:55;;;;;;;2.05;0.50;;;24.70;99.90;;;;;;5071007;28;20083;-79
2022/08/09 10:06:20;;;;;;;2.30;0.45;;;24.70;99.90;;;;;;5071101;28;20058;-82
2022/08/09 10:08:49;;;;;;;2.63;0.55;;;24.90;99.90;;;;;;5071134;28;20402;-78
2022/08/09 10:11:17;;;;;;;0.90;0.30;;;25.10;99.90;;;;;;5070587;28;20056;-80
2022/08/09 10:13:43;;;;;;;1.15;0.40;;;25.20;99.90;;;;;;5071280;28;20055;-80
2022/08/09 10:16:09;;;;;;;1.30;0.45;;;25.30;99.90;;;;;;5070641;28;20049;-79
2022/08/09 10:18:35;;;;;;;2.42;0.40;;;25.60;99.90;;;;;;5052693;28;20056;-82
2022/08/09 10:21:10;;;;;;;2.45;0.50;;;25.80;99.90;;;;;;5070354;28;20037;-74
2022/08/09 10:23:36;;;;;;;1.70;0.47;;;25.70;99.90;;;;;;5070007;28;20521;-86
2022/08/09 10:26:02;;;;;;;2.40;0.47;;;25.70;99.90;;;;;;5052182;28;20131;-83
2022/08/09 10:28:30;;;;;;;2.55;0.40;;;25.70;99.90;;;;;;5070456;28;20099;-80
2022/08/09 10:30:57;;;;;;;2.20;0.52;;;25.80;99.90;;;;;;5069982;28;20045;-81
2022/08/09 10:33:23;;;;;;;2.10;0.43;;;25.70;99.90;;;;;;5069777;28;20106;-82
2022/08/09 10:35:50;;;;;;;2.13;0.60;;;25.60;99.90;;;;;;5070144;28;20076;-83
2022/08/09 10:38:17;;;;;;;0.88;0.28;;;25.80;99.90;;;;;;5070344;28;20075;-86
2022/08/09 10:40:43;;;;;;;0.55;0.30;;;26.10;99.90;;;;;;5070147;28;20052;-77
2022/08/09 10:43:10;;;;;;;1.13;0.45;;;26.30;99.90;;;;;;5070043;28;20045;-83
2022/08/09 10:45:36;;;;;;;2.95;0.40;;;26.10;99.90;;;;;;5070053;28;20087;-81
2022/08/09 10:48:21;;;;;;;5.85;0.75;;;26.00;99.90;;;;;;5068891;28;20056;-76
2022/08/09 10:51:11;;;;;;;3.50;0.40;;;26.20;99.90;;;;;;5069891;28;20056;-81
2022/08/09 10:53:47;;;;;;;5.55;0.75;;;26.50;99.90;;;;;;5069936;28;20147;-80
2022/08/09 10:56:17;;;;;;;4.88;0.50;;;26.50;99.90;;;;;;5069724;28;20096;-84
2022/08/09 10:58:43;;;;;;;1.85;0.45;;;26.30;99.90;;;;;;5069449;28;20136;-84
2022/08/09 11:01:31;;;;;;;2.97;0.43;;;26.50;99.90;;;;;;5070057;28;20045;-84
2022/08/09 11:04:13;;;;;;;2.53;0.35;;;26.50;99.60;;;;;;5070225;28;20099;-84
2022/08/09 11:06:41;;;;;;;0.45;0.20;;;26.70;99.90;;;;;;5069958;28;20044;-85
2022/08/09 11:09:08;;;;;;;2.20;0.43;;;26.90;99.90;;;;;;5069526;28;20522;-80
2022/08/09 11:11:53;;;;;;;2.50;0.63;;;26.80;99.60;;;;;;5051953;28;20052;-81
2022/08/09 11:14:37;;;;;;;1.08;0.25;;;26.90;99.50;;;;;;5069657;28;20426;-84
2022/08/09 11:17:14;;;;;;;1.88;0.52;;;27.20;99.00;;;;;;5069871;28;20060;-83
2022/08/09 11:19:53;;;;;;;2.00;0.40;;;27.30;99.40;;;;;;5069602;28;20094;-81
2022/08/09 11:22:20;;;;;;;2.28;0.30;;;27.40;98.60;;;;;;5069743;28;20087;-85
2022/08/09 11:25:08;;;;;;;3.15;0.43;;;27.50;99.10;;;;;;5051943;28;20048;-81
2022/08/09 11:27:49;;;;;;;1.17;0.55;;;27.60;98.00;;;;;;5069632;28;20051;-83
2022/08/09 11:30:32;;;;;;;2.33;0.30;;;27.70;98.60;;;;;;5051295;28;20045;-82
2022/08/09 11:33:06;;;;;;;0.93;0.10;;;27.60;97.40;;;;;;5070132;28;20044;-81
2022/08/09 11:35:58;;;;;;;0.10;0.10;;;27.50;97.70;;;;;;5073758;28;20048;-85
2022/08/09 11:38:28;;;;;;;0.88;0.40;;;27.90;97.60;;;;;;5055763;28;20090;-85
2022/08/09 11:40:54;;;;;;;0.80;0.30;;;28.10;98.00;;;;;;5055899;28;20048;-82
2022/08/09 11:43:29;;;;;;;1.20;0.32;;;28.10;98.20;;;;;;5073728;28;20610;-82
2022/08/09 11:45:56;;;;;;;0.63;0.28;;;28.20;97.30;;;;;;5055722;28;20049;-86
2022/08/09 11:48:26;;;;;;;1.10;0.30;;;27.90;97.20;;;;;;5073593;28;20514;-86
2022/08/09 11:50:58;;;;;;;2.22;0.50;;;27.90;97.70;;;;;;5055748;28;20132;-84
2022/08/09 11:53:33;;;;;;;1.50;0.30;;;28.20;97.40;;;;;;5073454;28;20049;-81
2022/08/09 11:56:16;;;;;;;0.65;0.20;;;28.30;97.70;;;;;;5073810;28;20041;-83
2022/08/09 11:58:45;;;;;;;1.55;0.40;;;28.10;97.30;;;;;;5073611;28;20486;-82
2022/08/09 12:01:14;;;;;;;2.08;0.45;;;27.90;96.90;;;;;;5073403;28;20066;-86
2022/08/09 12:03:40;;;;;;;1.77;0.30;;;28.00;97.10;;;;;;5073317;28;20053;-80
2022/08/09 12:06:15;;;;;;;3.08;0.80;;;28.20;96.80;;;;;;5073239;28;20139;-82
2022/08/09 12:08:47;;;;;;;1.05;0.22;;;28.20;96.40;;;;;;5073136;28;20052;-86
2022/08/09 12:11:14;;;;;;;2.25;0.30;;;28.40;96.60;;;;;;5055109;28;20063;-83
2022/08/09 12:13:44;;;;;;;1.55;0.25;;;28.60;96.70;;;;;;5072998;28;20052;-89
2022/08/09 12:16:22;;;;;;;1.25;0.40;;;28.70;96.10;;;;;;5072539;28;20060;-84
2022/08/09 12:18:50;;;;;;;1.30;0.40;;;28.60;96.10;;;;;;5073078;28;20090;-85
2022/08/09 12:21:31;;;;;;;3.65;0.60;;;28.60;95.80;;;;;;5073067;28;20065;-85
2022/08/09 12:24:00;;;;;;;2.15;0.55;;;28.70;96.10;;;;;;5054930;28;20498;-86
2022/08/09 12:26:54;;;;;;;3.45;0.50;;;28.90;96.40;;;;;;5072880;28;20048;-81
2022/08/09 12:29:27;;;;;;;1.38;0.40;;;28.90;95.60;;;;;;5072970;28;20046;-83
2022/08/09 12:32:10;;;;;;;1.83;0.43;;;29.10;95.70;;;;;;5072389;28;20270;-84
2022/08/09 12:34:39;;;;;;;2.03;0.30;;;29.10;94.80;;;;;;5072532;28;20055;-82
2022/08/09 12:37:06;;;;;;;1.52;0.40;;;29.00;95.20;;;;;;5072454;28;20505;-80
2022/08/09 12:39:32;;;;;;;1.65;0.30;;;29.20;95.00;;;;;;5072662;28;20055;-87
2022/08/09 12:42:09;;;;;;;2.22;0.50;;;29.10;95.40;;;;;;5072387;28;20119;-86
2022/08/09 12:44:39;;;;;;;1.65;0.45;;;29.00;95.30;;;;;;5053501;28;20048;-85
2022/08/09 12:47:07;;;;;;;0.68;0.30;;;28.80;94.40;;;;;;5071732;28;20048;-83
2022/08/09 12:49:34;;;;;;;3.20;0.50;;;28.70;95.00;;;;;;5072359;28;20098;-87
2022/08/09 12:52:00;;;;;;;1.65;0.68;;;28.80;95.00;;;;;;5072029;28;20044;-84
2022/08/09 12:56:57;;;;;;;3.13;0.47;;;29.20;95.20;;;;;;5070440;28;20492;-87
2022/08/09 12:59:23;;;;;;;5.85;0.50;;;29.40;95.20;;;;;;5054264;28;20089;-85